This is the latest recevied weather packets stored in our database for station/object K5NWZ. If no packets are shown the sender has not sent any weather packets the latest 10 day(s).
| Time | Temp. | Humidity | Pressure | Rain* | Wind** | Luminosity | Snow |
|---|---|---|---|---|---|---|---|
| 1777815760 | 12.78° C | 39% | 1025.1 hPa | 0 mm | - | 162 W/m² | - |
| 1777815458 | 12.22° C | 41% | 1024.8 hPa | 0 mm | - | 176 W/m² | - |
| 1777815155 | 12.22° C | 41% | 1024.8 hPa | 0 mm | - | 142 W/m² | - |
| 1777814851 | 11.67° C | 42% | 1025.2 hPa | 0 mm | - | 148 W/m² | - |
| 1777814547 | 11.11° C | 44% | 1025.1 hPa | 0 mm | - | 103 W/m² | - |
| 1777814244 | 10.56° C | 45% | 1025.1 hPa | 0 mm | - | 91 W/m² | - |
| 1777813941 | 10.56° C | 45% | 1025.2 hPa | 0 mm | - | 109 W/m² | - |
| 1777813639 | 10° C | 48% | 1024.9 hPa | 0 mm | - | 105 W/m² | - |
| 1777813336 | 10° C | 49% | 1024.9 hPa | 0 mm | - | 83 W/m² | - |
| 1777813034 | 9.44° C | 54% | 1024.9 hPa | 0 mm | - | 66 W/m² | - |
| 1777812732 | 8.89° C | 56% | 1024.8 hPa | 0 mm | - | 44 W/m² | - |
| 1777812427 | 8.33° C | 53% | 1024.5 hPa | 0 mm | - | 45 W/m² | - |
| 1777812126 | 8.33° C | 56% | 1024.4 hPa | 0 mm | - | 37 W/m² | - |
| 1777811823 | 8.33° C | 54% | 1024.5 hPa | 0 mm | - | 34 W/m² | - |
| 1777811522 | 8.33° C | 55% | 1024.2 hPa | 0 mm | - | 30 W/m² | - |
| 1777811216 | 7.78° C | 53% | 1024.5 hPa | 0 mm | - | 26 W/m² | - |
| 1777810914 | 7.78° C | 50% | 1024.4 hPa | 0 mm | - | 22 W/m² | - |
| 1777810610 | 7.78° C | 50% | 1024.2 hPa | 0 mm | - | 17 W/m² | - |
| 1777810308 | 8.33° C | 47% | 1024.1 hPa | 0 mm | - | 13 W/m² | - |
| 1777810003 | 8.89° C | 44% | 1024.4 hPa | 0 mm | - | 9 W/m² | - |
| 1777809702 | 7.78° C | 47% | 1024.1 hPa | 0 mm | - | 6 W/m² | - |
| 1777809399 | 7.22° C | 48% | 1024 hPa | 0 mm | - | 3 W/m² | - |
| 1777809097 | 7.78° C | 47% | 1024.1 hPa | 0 mm | - | 2 W/m² | - |
| 1777808794 | 8.33° C | 45% | 1024.2 hPa | 0 mm | - | 1 W/m² | - |
| 1777808491 | 8.33° C | 44% | 1023.9 hPa | 0 mm | - | 0 W/m² | - |
* Rain latest hour (hover to see other rain measurements)
** Current wind speed in m/s (hover to see current wind gust speed)